Time,TemperatureF,DewpointF,PressureIn,WindDirection,WindDirectionDegrees,WindSpeedMPH,WindSpeedGustMPH,Humidity,HourlyPrecipIn,Conditions,Clouds,dailyrainin,SoftwareType,DateUTC
2013-02-27 00:02:00,38.0,36.0,29.58,NW,308,3.0,3.0,94,0.00,,,-99.99,,2013-02-27 05:02:00,
2013-02-27 00:12:00,38.0,36.0,29.58,NW,308,3.0,3.0,94,0.00,,,-99.99,,2013-02-27 05:12:00,
2013-02-27 00:22:00,38.0,36.0,29.58,NW,306,5.0,5.0,94,0.00,,,-99.99,,2013-02-27 05:22:00,
2013-02-27 00:32:00,37.0,35.0,29.58,NW,321,4.0,4.0,94,0.00,,,-99.99,,2013-02-27 05:32:00,
2013-02-27 00:33:00,37.0,35.0,29.57,NW,322,1.0,1.0,94,0.01,,,-99.99,,2013-02-27 05:33:00,
2013-02-27 00:42:00,37.0,35.0,29.58,NW,321,4.0,4.0,94,0.00,,,-99.99,,2013-02-27 05:42:00,
2013-02-27 00:52:00,37.0,35.0,29.57,NW,322,1.0,1.0,94,0.01,,,-99.99,,2013-02-27 05:52:00,
2013-02-27 01:02:00,37.0,35.0,29.57,NW,322,1.0,1.0,94,0.01,,,-99.99,,2013-02-27 06:02:00,
2013-02-27 01:11:00,37.0,35.0,29.57,NW,322,1.0,1.0,94,0.01,,,-99.99,,2013-02-27 06:11:00,
2013-02-27 01:22:00,37.0,35.0,29.57,NW,322,1.0,1.0,94,0.01,,,-99.99,,2013-02-27 06:22:00,
2013-02-27 09:02:00,40.0,38.0,29.58,WNW,290,3.0,3.0,92,-99.99,,,-99.99,,2013-02-27 14:02:00,
2013-02-27 09:12:00,40.0,38.0,29.58,WNW,290,3.0,3.0,92,-99.99,,,-99.99,,2013-02-27 14:12:00,
2013-02-27 09:22:00,40.0,37.0,29.58,WNW,292,0.0,0.0,90,-99.99,,,-99.99,,2013-02-27 14:22:00,
2013-02-27 09:32:00,41.0,38.0,29.58,WNW,292,0.0,0.0,90,-99.99,,,-99.99,,2013-02-27 14:32:00,
2013-02-27 09:42:00,41.0,38.0,29.58,WNW,292,0.0,0.0,90,-99.99,,,-99.99,,2013-02-27 14:42:00,
2013-02-27 09:52:00,43.0,40.0,29.58,WNW,292,0.0,0.0,88,-99.99,,,-99.99,,2013-02-27 14:52:00,
2013-02-27 10:02:00,44.0,39.0,29.59,WNW,292,0.0,0.0,83,0.00,,,-99.99,,2013-02-27 15:02:00,
2013-02-27 10:12:00,44.0,39.0,29.59,WNW,292,0.0,0.0,83,0.00,,,-99.99,,2013-02-27 15:12:00,
2013-02-27 10:22:00,46.0,40.0,29.59,WNW,295,3.0,3.0,79,0.00,,,-99.99,,2013-02-27 15:22:00,
2013-02-27 10:32:00,48.0,41.0,29.58,WNW,294,0.0,0.0,76,0.00,,,-99.99,,2013-02-27 15:32:00,
2013-02-27 10:42:00,48.0,41.0,29.58,WNW,294,0.0,0.0,76,0.00,,,-99.99,,2013-02-27 15:42:00,
2013-02-27 10:52:00,49.0,40.0,29.58,West,273,2.0,2.0,71,0.00,,,-99.99,,2013-02-27 15:52:00,
2013-02-27 11:02:00,49.0,39.0,29.58,WSW,243,4.0,4.0,67,0.00,,,-99.99,,2013-02-27 16:02:00,
2013-02-27 11:12:00,49.0,39.0,29.58,WSW,243,4.0,4.0,67,0.00,,,-99.99,,2013-02-27 16:12:00,
2013-02-27 11:22:00,49.0,39.0,29.58,West,274,2.0,2.0,68,0.00,,,-99.99,,2013-02-27 16:22:00,
2013-02-27 11:32:00,49.0,39.0,29.57,WNW,287,4.0,4.0,68,0.00,,,-99.99,,2013-02-27 16:32:00,
2013-02-27 11:42:00,49.0,39.0,29.57,WNW,287,4.0,4.0,68,0.00,,,-99.99,,2013-02-27 16:42:00,
2013-02-27 11:52:00,50.0,40.0,29.58,WNW,300,0.0,0.0,69,0.00,,,-99.99,,2013-02-27 16:52:00,
2013-02-27 12:02:00,50.0,40.0,29.58,WNW,300,0.0,0.0,69,0.00,,,-99.99,,2013-02-27 17:02:00,
2013-02-27 12:11:00,50.0,40.0,29.58,WNW,300,0.0,0.0,69,0.00,,,-99.99,,2013-02-27 17:11:00,
2013-02-27 12:21:00,50.0,40.0,29.58,WNW,300,0.0,0.0,69,0.00,,,-99.99,,2013-02-27 17:21:00,
2013-02-27 12:32:00,50.0,40.0,29.58,WNW,300,0.0,0.0,69,0.00,,,-99.99,,2013-02-27 17:32:00,